createdAt,value
2019-02-11T00:00:42.068Z,79.07
2019-02-11T00:05:46.279Z,78.60
2019-02-11T00:11:04.437Z,78.11
2019-02-11T00:16:27.525Z,78.01
2019-02-11T00:21:51.048Z,78.46
2019-02-11T00:27:14.143Z,78.64
2019-02-11T00:32:37.470Z,79.07
2019-02-11T00:37:41.350Z,78.88
2019-02-11T00:42:45.261Z,78.69
2019-02-11T00:48:08.727Z,78.39
2019-02-11T00:53:13.430Z,78.11
2019-02-11T00:58:17.230Z,78.12
2019-02-11T01:03:40.695Z,77.82
2019-02-11T01:14:46.888Z,77.74
2019-02-11T01:19:50.438Z,77.82
2019-02-11T01:25:13.962Z,78.11
2019-02-11T01:30:37.530Z,77.94
2019-02-11T01:35:41.195Z,77.84
2019-02-11T01:41:04.634Z,77.38
2019-02-11T01:46:11.283Z,77.71
2019-02-11T01:51:35.044Z,77.66
2019-02-11T01:56:58.397Z,77.56
2019-02-11T02:02:21.991Z,77.68
2019-02-11T02:07:45.089Z,77.81
2019-02-11T02:13:00.629Z,77.82
2019-02-11T02:18:23.621Z,77.22
2019-02-11T02:23:46.742Z,77.67
2019-02-11T02:29:10.348Z,80.49
2019-02-11T02:34:13.967Z,81.02
2019-02-11T02:39:37.700Z,80.87
2019-02-11T02:45:01.081Z,80.63
2019-02-11T02:50:05.807Z,80.88
2019-02-11T02:55:29.156Z,80.79
2019-02-11T03:00:52.397Z,80.95
2019-02-11T03:06:15.396Z,80.81
2019-02-11T03:11:31.747Z,80.39
2019-02-11T03:16:54.996Z,80.27
2019-02-11T03:21:58.535Z,80.14
2019-02-11T03:27:22.279Z,80.12
2019-02-11T03:32:45.411Z,79.86
2019-02-11T03:38:08.481Z,79.83
2019-02-11T03:43:13.221Z,79.37
2019-02-11T03:48:36.389Z,79.10
2019-02-11T03:54:00.384Z,78.94
2019-02-11T03:59:23.517Z,78.82
2019-02-11T04:04:46.515Z,78.34
2019-02-11T04:09:50.683Z,78.40
2019-02-11T04:15:07.779Z,78.11
2019-02-11T04:20:31.252Z,78.18
2019-02-11T04:25:54.609Z,77.83
2019-02-11T04:31:17.976Z,77.59
2019-02-11T04:36:41.084Z,76.84
2019-02-11T04:42:04.237Z,76.64
2019-02-11T04:47:27.584Z,76.50
2019-02-11T04:52:50.520Z,76.49
2019-02-11T04:58:13.344Z,76.22
2019-02-11T05:03:37.351Z,76.24
2019-02-11T05:14:29.108Z,76.39
2019-02-11T05:19:52.446Z,76.11
2019-02-11T05:25:15.883Z,76.45
2019-02-11T05:30:39.301Z,76.20
2019-02-11T05:36:02.769Z,76.36
2019-02-11T05:41:26.346Z,76.21
2019-02-11T05:46:49.817Z,76.14
2019-02-11T05:52:13.554Z,76.04
2019-02-11T05:57:17.817Z,75.85
2019-02-11T06:02:23.266Z,75.62
2019-02-11T06:07:27.159Z,75.50
2019-02-11T06:12:33.439Z,75.41
2019-02-11T06:17:39.677Z,75.56
2019-02-11T06:22:43.537Z,75.70
2019-02-11T06:27:47.648Z,75.40
2019-02-11T06:32:52.128Z,75.47
2019-02-11T06:37:56.451Z,74.93
2019-02-11T06:42:59.937Z,74.78
2019-02-11T06:48:04.313Z,74.95
2019-02-11T06:53:10.046Z,75.13
2019-02-11T06:58:14.519Z,74.82
2019-02-11T07:03:18.035Z,74.69
2019-02-11T07:08:23.632Z,74.88
2019-02-11T07:13:28.316Z,75.70
2019-02-11T07:18:33.300Z,76.64
2019-02-11T07:23:37.669Z,76.96
2019-02-11T07:28:41.691Z,77.02
2019-02-11T07:33:45.759Z,77.24
2019-02-11T07:38:49.527Z,77.42
2019-02-11T07:44:08.866Z,77.26
2019-02-11T07:49:12.386Z,77.04
2019-02-11T07:54:16.242Z,76.61
2019-02-11T07:59:20.034Z,76.98
2019-02-11T08:04:24.326Z,76.54
2019-02-11T08:09:28.125Z,76.70
2019-02-11T08:14:31.787Z,76.73
2019-02-11T08:19:35.795Z,76.44
2019-02-11T08:24:39.864Z,76.90
2019-02-11T08:29:43.560Z,76.72
2019-02-11T08:34:48.408Z,76.67
2019-02-11T08:39:54.346Z,75.27
2019-02-11T08:44:58.377Z,74.49
2019-02-11T08:50:03.895Z,74.05
2019-02-11T08:55:08.492Z,73.80
2019-02-11T09:00:13.034Z,73.77
2019-02-11T09:05:17.995Z,74.12
2019-02-11T09:10:22.291Z,74.42
2019-02-11T09:15:26.349Z,74.15
2019-02-11T09:20:30.279Z,73.41
2019-02-11T09:25:34.454Z,72.84
2019-02-11T09:30:39.873Z,72.22
2019-02-11T09:35:43.793Z,71.61
2019-02-11T09:40:48.025Z,70.68
2019-02-11T09:45:52.513Z,70.72
2019-02-11T09:50:56.821Z,70.20
2019-02-11T09:56:02.925Z,68.32
2019-02-11T10:01:06.572Z,68.37
2019-02-11T10:06:10.591Z,67.25
2019-02-11T10:11:14.670Z,67.28
2019-02-11T10:16:19.060Z,67.75
2019-02-11T10:21:24.291Z,66.81
2019-02-11T10:26:28.622Z,66.77
2019-02-11T10:31:32.231Z,66.82
2019-02-11T10:36:36.220Z,69.31
2019-02-11T10:41:40.425Z,74.45
2019-02-11T10:46:44.456Z,76.58
2019-02-11T10:51:51.027Z,77.08
2019-02-11T10:56:57.127Z,76.49
2019-02-11T11:02:01.014Z,72.55
2019-02-11T11:07:05.530Z,69.59
2019-02-11T11:12:09.413Z,67.41
2019-02-11T11:17:13.859Z,65.81
2019-02-11T11:22:18.048Z,64.95
2019-02-11T11:27:24.118Z,63.49
2019-02-11T11:32:27.986Z,63.12
2019-02-11T11:37:31.817Z,64.13
2019-02-11T11:42:34.893Z,62.78
2019-02-11T11:47:38.959Z,61.34
2019-02-11T11:52:42.976Z,57.59
2019-02-11T11:58:06.284Z,55.99
2019-02-11T12:03:29.792Z,57.01
2019-02-11T12:08:54.167Z,57.89
2019-02-11T12:14:10.799Z,57.79
2019-02-11T12:19:35.644Z,58.63
2019-02-11T12:25:00.912Z,59.14
2019-02-11T12:30:25.338Z,58.07
2019-02-11T12:35:48.629Z,54.24
2019-02-11T12:41:12.505Z,53.13
2019-02-11T12:46:16.486Z,53.11
2019-02-11T12:51:39.956Z,53.48
2019-02-11T12:57:02.225Z,52.94
2019-02-11T13:02:25.471Z,53.31
2019-02-11T13:07:48.731Z,52.89
2019-02-11T13:13:06.834Z,53.59
2019-02-11T13:18:30.249Z,53.34
2019-02-11T13:23:55.602Z,52.44
2019-02-11T13:29:18.755Z,52.60
2019-02-11T13:34:41.983Z,52.66
2019-02-11T13:40:07.151Z,52.31
2019-02-11T13:45:30.212Z,52.51
2019-02-11T13:50:54.190Z,52.58
2019-02-11T13:56:17.255Z,51.95
2019-02-11T14:01:40.992Z,51.67
2019-02-11T14:06:44.894Z,51.22
2019-02-11T14:12:01.228Z,52.95
2019-02-11T14:17:24.441Z,53.49
2019-02-11T14:22:47.598Z,53.45
2019-02-11T14:40:10.536Z,51.84
2019-02-11T14:45:33.987Z,51.92
2019-02-11T14:56:50.899Z,52.28
2019-02-11T15:02:13.985Z,53.04
2019-02-11T15:13:48.513Z,54.11
2019-02-11T15:24:50.186Z,56.14
2019-02-11T15:35:56.219Z,55.61
2019-02-11T15:41:06.987Z,55.09
2019-02-11T15:47:13.231Z,54.64
2019-02-11T15:52:35.681Z,53.24
2019-02-11T16:03:47.863Z,52.46
2019-02-11T16:09:10.037Z,53.23
2019-02-11T16:14:25.190Z,53.48
2019-02-11T16:19:47.535Z,53.55
2019-02-11T16:25:10.372Z,54.10
2019-02-11T16:41:33.249Z,55.64
2019-02-11T16:47:17.398Z,56.34
2019-02-11T16:52:39.630Z,56.50
2019-02-11T16:58:01.858Z,56.13
2019-02-11T17:03:24.075Z,56.14
2019-02-11T17:08:47.388Z,56.11
2019-02-11T17:14:03.036Z,56.79
2019-02-11T17:19:25.246Z,57.44
2019-02-11T17:24:47.525Z,57.98
2019-02-11T17:30:12.412Z,58.73
2019-02-11T17:35:34.685Z,58.56
2019-02-11T18:04:15.710Z,57.91
2019-02-11T18:09:21.278Z,57.96
2019-02-11T18:14:36.540Z,58.14
2019-02-11T18:20:20.012Z,58.34
2019-02-11T18:31:33.807Z,58.31
2019-02-11T18:36:56.055Z,58.05
2019-02-11T18:42:18.491Z,60.61
2019-02-11T18:47:21.389Z,62.25
2019-02-11T18:52:43.569Z,63.04
2019-02-11T18:58:05.776Z,62.82
2019-02-11T19:03:28.217Z,61.98
2019-02-11T19:08:50.407Z,61.59
2019-02-11T19:14:05.849Z,61.40
2019-02-11T19:19:28.017Z,61.01
2019-02-11T19:24:50.228Z,61.03
2019-02-11T19:30:15.483Z,61.26
2019-02-11T19:35:37.673Z,61.86
2019-02-11T19:41:00.646Z,62.88
2019-02-11T19:46:22.862Z,63.28
2019-02-11T19:51:45.089Z,63.53
2019-02-11T19:57:07.350Z,63.47
2019-02-11T20:02:29.578Z,63.35
2019-02-11T20:07:51.795Z,63.96
2019-02-11T20:13:07.084Z,64.28
2019-02-11T20:18:29.352Z,64.69
2019-02-11T20:23:51.597Z,65.01
2019-02-11T20:29:13.902Z,65.00
2019-02-11T20:34:36.069Z,65.43
2019-02-11T20:40:03.550Z,65.72
2019-02-11T20:45:24.175Z,65.88
2019-02-11T20:56:37.134Z,65.32
2019-02-11T21:02:30.131Z,64.78
2019-02-11T21:13:24.182Z,64.47
2019-02-11T21:23:56.878Z,64.60
2019-02-11T21:40:41.259Z,64.10
2019-02-11T21:46:03.828Z,63.67
2019-02-11T21:51:26.284Z,63.22
2019-02-11T21:56:48.500Z,62.17
2019-02-11T22:02:10.786Z,62.11
2019-02-11T22:07:33.428Z,61.73
2019-02-11T22:12:49.215Z,61.03
2019-02-11T22:18:11.429Z,59.99
2019-02-11T22:23:33.625Z,59.30
2019-02-11T22:28:55.909Z,59.57
2019-02-11T22:34:18.149Z,59.43
2019-02-11T22:39:40.368Z,59.31
2019-02-11T22:51:07.398Z,59.15
2019-02-11T22:56:29.603Z,59.03
2019-02-11T23:08:14.088Z,59.46
2019-02-11T23:13:07.227Z,59.68
2019-02-11T23:18:29.411Z,60.02
2019-02-11T23:23:51.611Z,60.62
2019-02-11T23:29:13.800Z,61.16
2019-02-11T23:34:35.992Z,62.20
2019-02-11T23:39:58.188Z,62.39
2019-02-11T23:45:20.365Z,62.81
2019-02-11T23:50:42.551Z,63.18
2019-02-11T23:56:04.782Z,63.12
